Time;durP1;ratioP1;P1;durP2;ratioP2;P2;SDS_P1;SDS_P2;PMS_P1;PMS_P2;Temp;Humidity;BMP_temperature;BMP_pressure;BME280_temperature;BME280_humidity;BME280_pressure;Samples;Min_cycle;Max_cycle;Signal;HPM_P1;HPM_P2
2022/11/11 00:01:54;;;;;;;10.05;7.57;;;;;;;19.35;67.04;102703.06;5062357;28;20072;-93
2022/11/11 00:04:40;;;;;;;7.63;6.85;;;;;;;19.36;66.78;102695.84;5059695;28;20079;-92
2022/11/11 00:07:27;;;;;;;8.55;7.70;;;;;;;19.34;66.85;102695.94;5058859;28;20056;-92
2022/11/11 00:10:14;;;;;;;7.82;6.93;;;;;;;19.34;66.74;102706.69;5059708;28;20511;-92
2022/11/11 00:13:00;;;;;;;9.82;8.43;;;;;;;19.34;66.81;102698.63;5058877;28;20059;-91
2022/11/11 00:15:46;;;;;;;8.07;6.78;;;;;;;19.34;66.54;102697.78;5059662;28;20055;-92
2022/11/11 00:27:47;;;;;;;8.75;7.05;;;;;;;19.34;66.36;102700.47;5060350;28;20056;-92
2022/11/11 00:30:33;;;;;;;9.98;8.68;;;;;;;19.33;66.37;102699.59;5059797;28;20052;-93
2022/11/11 00:33:19;;;;;;;9.02;8.10;;;;;;;19.33;66.25;102706.78;5065933;28;20059;-92
2022/11/11 00:36:06;;;;;;;8.30;7.43;;;;;;;19.32;66.18;102711.28;5065788;28;20060;-93
2022/11/11 00:38:54;;;;;;;8.25;7.43;;;;;;;19.33;66.29;102717.53;5060274;28;20059;-93
2022/11/11 00:41:40;;;;;;;9.10;8.02;;;;;;;19.31;66.23;102714.91;5059962;28;20052;-92
2022/11/11 00:44:26;;;;;;;8.10;7.30;;;;;;;19.32;66.06;102724.69;5065003;28;20056;-90
2022/11/11 00:53:26;;;;;;;9.07;7.35;;;;;;;19.33;65.92;102712.16;5059181;28;20064;-89
2022/11/11 00:56:12;;;;;;;9.77;8.23;;;;;;;19.31;66.03;102714.91;5058369;28;20060;-90
2022/11/11 00:58:58;;;;;;;8.52;7.63;;;;;;;19.32;65.88;102719.31;5064861;28;20067;-90
2022/11/11 01:01:44;;;;;;;8.93;8.02;;;;;;;19.32;66.00;102719.31;5065234;28;20052;-91
2022/11/11 01:04:30;;;;;;;11.75;8.68;;;;;;;19.32;65.95;102713.09;5062070;28;20060;-91
2022/11/11 01:07:16;;;;;;;10.40;9.00;;;;;;;19.31;65.90;102712.22;5057946;28;20060;-91
2022/11/11 01:10:03;;;;;;;9.32;8.32;;;;;;;19.31;65.73;102712.22;5064348;28;20492;-90
2022/11/11 01:13:10;;;;;;;9.25;7.75;;;;;;;19.32;65.63;102708.59;5062595;28;20056;-91
2022/11/11 01:16:03;;;;;;;9.05;7.57;;;;;;;19.32;65.83;102702.34;5064691;28;20435;-91
2022/11/11 01:18:51;;;;;;;10.05;8.88;;;;;;;19.33;65.82;102701.44;5058178;28;20060;-91
2022/11/11 01:21:37;;;;;;;9.93;8.93;;;;;;;19.32;65.75;102699.66;5064647;28;20104;-91
2022/11/11 01:24:24;;;;;;;9.35;8.23;;;;;;;19.32;65.86;102702.34;5057234;28;20056;-91
2022/11/11 01:27:10;;;;;;;9.25;8.35;;;;;;;19.31;65.91;102692.56;5065505;28;20064;-91
2022/11/11 01:29:56;;;;;;;12.85;9.45;;;;;;;19.32;65.69;102696.97;5065181;28;20056;-91
2022/11/11 01:32:42;;;;;;;8.73;7.82;;;;;;;19.30;65.79;102698.91;5064661;28;20056;-91
2022/11/11 01:35:28;;;;;;;8.77;7.88;;;;;;;19.31;65.91;102697.94;5057620;28;20072;-92
2022/11/11 01:38:14;;;;;;;10.02;8.73;;;;;;;19.31;65.57;102700.63;5057664;28;20060;-91
2022/11/11 01:41:31;;;;;;;9.30;8.32;;;;;;;19.31;65.60;102697.94;5064833;28;20064;-92
2022/11/11 01:44:09;;;;;;;8.95;8.05;;;;;;;19.31;65.62;102700.63;5065170;28;20071;-92
2022/11/11 01:47:03;;;;;;;9.57;8.43;;;;;;;19.31;65.62;102700.63;5065064;28;20500;-90
2022/11/11 01:50:00;;;;;;;9.93;8.52;;;;;;;19.31;65.57;102698.81;5064474;28;20393;-91
2022/11/11 01:52:46;;;;;;;9.23;7.72;;;;;;;19.29;65.59;102708.78;5064267;28;20499;-90
2022/11/11 01:55:32;;;;;;;10.88;9.77;;;;;;;19.31;65.44;102703.31;5057442;28;20080;-91
2022/11/11 01:58:20;;;;;;;9.80;8.57;;;;;;;19.31;65.62;102703.31;5064095;28;20052;-90
2022/11/11 02:01:06;;;;;;;10.18;8.43;;;;;;;19.29;65.33;102708.78;5062935;28;20052;-90
2022/11/11 02:07:03;;;;;;;9.38;8.27;;;;;;;19.30;65.46;102710.50;5064332;28;20055;-89
2022/11/11 02:09:51;;;;;;;10.63;9.38;;;;;;;19.30;65.44;102709.66;5057570;28;20056;-90
2022/11/11 02:15:42;;;;;;;11.05;8.80;;;;;;;19.29;65.34;102718.66;5063943;28;20052;-91
2022/11/11 02:18:31;;;;;;;11.40;9.30;;;;;;;19.29;65.54;102716.84;5063061;28;20060;-91
2022/11/11 02:21:35;;;;;;;11.00;9.32;;;;;;;19.30;65.19;102721.25;5063452;28;20048;-88
2022/11/11 02:24:23;;;;;;;9.90;8.90;;;;;;;19.30;65.15;102728.44;5063609;28;20068;-87
2022/11/11 02:27:13;;;;;;;10.27;9.18;;;;;;;19.30;65.37;102733.81;5062200;28;20116;-88
2022/11/11 02:30:00;;;;;;;11.63;9.88;;;;;;;19.31;65.24;102733.72;5062366;28;20047;-88
2022/11/11 02:32:50;;;;;;;13.02;9.68;;;;;;;19.31;65.30;102741.78;5057022;28;20082;-89
2022/11/11 02:35:39;;;;;;;10.43;9.32;;;;;;;19.31;65.33;102733.72;5062256;28;20401;-90
2022/11/11 02:38:26;;;;;;;10.77;9.18;;;;;;;19.31;65.31;102743.59;5062923;28;20064;-90
2022/11/11 02:44:16;;;;;;;11.13;9.30;;;;;;;19.30;65.38;102736.50;5064039;28;20052;-90
2022/11/11 02:47:03;;;;;;;10.45;8.52;;;;;;;19.30;65.44;102732.00;5063713;28;20060;-90
2022/11/11 02:49:50;;;;;;;11.00;9.90;;;;;;;19.30;65.32;102723.06;5062479;28;20064;-90
2022/11/11 02:52:36;;;;;;;11.18;8.98;;;;;;;19.30;65.05;102732.00;5057366;28;20476;-90
2022/11/11 02:55:22;;;;;;;9.50;8.50;;;;;;;19.29;65.40;102719.53;5062075;28;20052;-89
2022/11/11 02:58:08;;;;;;;10.27;9.10;;;;;;;19.29;65.53;102730.25;5062814;28;20060;-89
2022/11/11 03:00:54;;;;;;;10.63;9.45;;;;;;;19.29;65.35;102726.72;5062581;28;20052;-89
2022/11/11 03:03:40;;;;;;;10.00;8.85;;;;;;;19.30;65.21;102733.81;5054734;28;20059;-89
2022/11/11 03:06:25;;;;;;;10.38;9.27;;;;;;;19.29;65.11;102724.03;5061500;28;20063;-89
2022/11/11 03:09:11;;;;;;;11.13;9.55;;;;;;;19.29;65.28;102727.59;5056293;28;20052;-89
2022/11/11 03:11:57;;;;;;;10.68;9.57;;;;;;;19.30;65.09;102736.50;5062089;28;20071;-89
2022/11/11 03:14:43;;;;;;;10.45;9.38;;;;;;;19.29;64.99;102730.25;5063078;28;20075;-89
2022/11/11 03:17:38;;;;;;;10.65;9.07;;;;;;;19.30;65.13;102741.88;5061773;28;20060;-89
2022/11/11 03:23:29;;;;;;;10.07;9.07;;;;;;;19.28;65.19;102736.56;5057148;28;20068;-91
2022/11/11 03:26:15;;;;;;;9.95;8.95;;;;;;;19.30;64.97;102736.50;5055838;28;20063;-90
2022/11/11 03:29:01;;;;;;;9.90;8.90;;;;;;;19.29;65.07;102734.78;5061539;28;20060;-88
2022/11/11 03:31:47;;;;;;;10.52;9.43;;;;;;;19.28;65.01;102733.88;5061231;28;20071;-88
2022/11/11 03:34:33;;;;;;;10.05;9.02;;;;;;;19.29;65.15;102737.47;5054714;28;20072;-88
2022/11/11 03:40:37;;;;;;;10.27;9.18;;;;;;;19.28;65.08;102723.13;5036140;28;20401;-88
2022/11/11 03:43:28;;;;;;;11.15;9.55;;;;;;;19.28;64.89;102728.50;5037257;28;20052;-88
2022/11/11 03:46:14;;;;;;;11.13;9.75;;;;;;;19.29;64.94;102729.41;5026168;28;20520;-87
2022/11/11 03:49:00;;;;;;;10.77;9.38;;;;;;;19.27;65.04;102722.28;5040045;28;20444;-87
2022/11/11 03:51:46;;;;;;;10.13;9.13;;;;;;;19.29;65.11;102721.34;5025939;28;20437;-87
2022/11/11 03:54:31;;;;;;;10.60;9.43;;;;;;;19.29;65.31;102734.78;5033441;28;20061;-88
2022/11/11 03:57:29;;;;;;;10.73;9.32;;;;;;;19.27;64.99;102733.00;5034907;28;20157;-87
2022/11/11 04:00:19;;;;;;;10.27;9.25;;;;;;;19.27;64.88;102735.69;5033588;28;20053;-88
2022/11/11 04:16:04;;;;;;;10.38;9.10;;;;;;;19.29;64.98;102756.25;5038430;28;20061;-88
2022/11/11 04:21:48;;;;;;;11.38;10.23;;;;;;;19.28;64.86;102758.03;5061688;28;20112;-89
2022/11/11 04:27:39;;;;;;;11.65;10.55;;;;;;;19.27;64.47;102754.50;5060843;28;20465;-82
2022/11/11 04:30:25;;;;;;;10.90;9.00;;;;;;;19.29;64.75;102749.06;5060524;28;20053;-80
2022/11/11 04:33:11;;;;;;;11.13;9.98;;;;;;;19.29;64.63;102743.69;5060644;28;20059;-80
2022/11/11 04:35:57;;;;;;;10.48;9.38;;;;;;;19.30;64.43;102745.41;5061606;28;20075;-86
2022/11/11 04:41:47;;;;;;;13.27;10.00;;;;;;;19.28;64.75;102736.56;5062220;28;20053;-88
2022/11/11 04:48:09;;;;;;;10.73;9.63;;;;;;;19.30;64.58;102749.94;5062053;28;20067;-89
2022/11/11 04:50:55;;;;;;;10.63;9.52;;;;;;;19.30;64.74;102755.28;5061141;28;20063;-90
2022/11/11 04:53:41;;;;;;;11.80;9.52;;;;;;;19.29;64.71;102757.13;5062368;28;20059;-90
2022/11/11 04:59:31;;;;;;;11.20;9.75;;;;;;;19.29;64.69;102759.81;5065544;28;20060;-88
2022/11/11 05:05:23;;;;;;;12.35;10.85;;;;;;;19.28;64.62;102774.16;5059975;28;20049;-88
2022/11/11 05:11:13;;;;;;;10.65;9.55;;;;;;;19.29;64.71;102761.63;5065305;28;20049;-88
2022/11/11 05:25:24;;;;;;;11.50;10.35;;;;;;;19.29;64.64;102775.06;5037017;28;20056;-84
2022/11/11 05:26:31;;;;;;;10.85;9.75;;;;;;;19.27;64.77;102775.13;5041976;28;20057;-88
2022/11/11 05:29:17;;;;;;;10.43;9.05;;;;;;;19.26;64.69;102773.41;5042087;28;20064;-88
2022/11/11 05:32:03;;;;;;;13.30;11.02;;;;;;;19.29;64.50;102777.75;5041842;28;20547;-88
2022/11/11 05:34:49;;;;;;;11.25;10.10;;;;;;;19.27;64.33;102775.13;5037408;28;20069;-88
2022/11/11 05:37:35;;;;;;;11.70;10.50;;;;;;;19.27;64.65;102773.28;5035484;28;20053;-87
2022/11/11 05:40:21;;;;;;;10.98;9.88;;;;;;;19.27;64.39;102778.66;5025822;28;20568;-87
2022/11/11 05:43:07;;;;;;;11.45;10.00;;;;;;;19.26;64.55;102785.00;5041735;28;20057;-88
2022/11/11 05:45:53;;;;;;;11.30;10.20;;;;;;;19.27;64.41;102780.50;5042440;28;20444;-88
2022/11/11 05:49:13;;;;;;;12.90;10.80;;;;;;;19.25;64.41;102783.28;5041736;28;20497;-88
2022/11/11 05:51:45;;;;;;;12.32;10.13;;;;;;;19.27;64.50;102783.19;5035434;28;20062;-88
2022/11/11 05:54:31;;;;;;;13.85;10.82;;;;;;;19.26;64.48;102787.69;5022311;28;20062;-88
2022/11/11 05:57:17;;;;;;;11.82;10.20;;;;;;;19.26;64.49;102786.81;5042042;28;20049;-88
2022/11/11 06:00:04;;;;;;;12.65;10.82;;;;;;;19.25;64.35;102795.84;5049917;28;20057;-88
2022/11/11 06:02:49;;;;;;;11.50;10.30;;;;;;;19.25;64.26;102796.69;5063681;28;20049;-88
2022/11/11 06:05:36;;;;;;;13.48;10.82;;;;;;;19.25;64.35;102794.00;5057695;28;20048;-88
2022/11/11 06:08:22;;;;;;;12.32;10.88;;;;;;;19.24;64.40;102786.91;5063118;28;20057;-89
2022/11/11 06:11:08;;;;;;;11.70;10.50;;;;;;;19.25;64.22;102791.31;5062612;28;20053;-88
2022/11/11 06:13:54;;;;;;;11.63;10.43;;;;;;;19.25;64.22;102790.47;5057020;28;20049;-89
2022/11/11 06:16:40;;;;;;;11.20;9.85;;;;;;;19.25;64.33;102798.53;5063933;28;20057;-88
2022/11/11 06:19:26;;;;;;;13.20;11.77;;;;;;;19.24;64.33;102805.72;5063133;28;20068;-87
2022/11/11 06:22:12;;;;;;;12.90;10.57;;;;;;;19.24;64.27;102811.09;5062206;28;20056;-87
2022/11/11 06:26:11;;;;;;;11.80;10.55;;;;;;;19.24;64.25;102807.50;5062945;28;20049;-87
2022/11/11 06:28:03;;;;;;;12.20;10.95;;;;;;;19.25;64.22;102811.94;5055994;28;20053;-87
2022/11/11 06:30:49;;;;;;;11.77;10.32;;;;;;;19.25;64.19;102803.91;5064492;28;20484;-87
2022/11/11 06:33:37;;;;;;;11.45;10.18;;;;;;;19.24;64.24;102808.41;5061791;28;20057;-87
2022/11/11 06:36:23;;;;;;;10.95;9.82;;;;;;;19.24;64.22;102804.81;5062268;28;20053;-88
2022/11/11 06:39:09;;;;;;;12.60;10.85;;;;;;;19.24;64.04;102812.88;5062337;28;20166;-89
2022/11/11 06:41:55;;;;;;;12.43;11.13;;;;;;;19.24;64.18;102820.94;5061229;28;20053;-88
2022/11/11 06:44:41;;;;;;;11.35;10.18;;;;;;;19.23;63.94;102828.13;5062127;28;20045;-88
2022/11/11 06:47:27;;;;;;;12.38;11.00;;;;;;;19.24;64.11;102829.88;5062643;28;20045;-89
2022/11/11 06:50:13;;;;;;;11.57;10.38;;;;;;;19.24;63.97;102828.97;5061895;28;20048;-89
2022/11/11 06:53:07;;;;;;;10.43;9.40;;;;;;;19.24;64.17;102834.34;5062406;28;20053;-89
2022/11/11 06:55:54;;;;;;;12.35;11.05;;;;;;;19.24;64.17;102837.94;5062715;28;20060;-88
2022/11/11 06:58:40;;;;;;;13.15;10.38;;;;;;;19.23;64.08;102849.59;5061421;28;20053;-88
2022/11/11 07:01:26;;;;;;;12.75;11.30;;;;;;;19.22;63.98;102850.56;5060275;28;20057;-89
2022/11/11 07:04:12;;;;;;;12.27;11.00;;;;;;;19.23;64.10;102844.22;5058047;28;20057;-89
2022/11/11 07:06:58;;;;;;;12.02;10.77;;;;;;;19.23;64.04;102846.91;5055010;28;20492;-87
2022/11/11 07:09:44;;;;;;;12.82;11.23;;;;;;;19.24;64.19;102850.47;5060629;28;20500;-87
2022/11/11 07:12:30;;;;;;;12.30;11.00;;;;;;;19.23;64.14;102841.53;5059115;28;20045;-87
2022/11/11 07:15:16;;;;;;;11.88;10.68;;;;;;;19.23;64.04;102838.00;5060497;28;20492;-87
2022/11/11 07:18:02;;;;;;;11.88;10.45;;;;;;;19.23;63.94;102838.88;5061190;28;20053;-88
2022/11/11 07:20:48;;;;;;;11.95;10.75;;;;;;;19.23;63.83;102849.59;5061348;28;20049;-89
2022/11/11 07:23:34;;;;;;;13.10;10.38;;;;;;;19.24;63.84;102848.69;5054560;28;20049;-89
2022/11/11 07:26:20;;;;;;;13.57;11.02;;;;;;;19.22;64.12;102845.19;5061528;28;20057;-87
2022/11/11 07:29:06;;;;;;;11.95;9.93;;;;;;;19.23;64.06;102849.59;5060979;28;20492;-84
2022/11/11 07:31:52;;;;;;;13.25;11.02;;;;;;;19.23;63.88;102854.97;5061779;28;20515;-87
2022/11/11 07:34:38;;;;;;;12.40;10.27;;;;;;;19.24;63.91;102853.16;5061718;28;20049;-89
2022/11/11 07:37:24;;;;;;;14.85;11.63;;;;;;;19.24;63.92;102855.84;5060662;28;20052;-88
2022/11/11 07:40:15;;;;;;;13.98;10.70;;;;;;;19.23;63.83;102854.97;5060636;28;20057;-84
2022/11/11 07:43:01;;;;;;;12.43;10.48;;;;;;;19.23;63.92;102854.97;5060618;28;20057;-87
2022/11/11 07:45:47;;;;;;;13.38;11.98;;;;;;;19.24;63.87;102845.09;5062114;28;20053;-84
2022/11/11 07:48:33;;;;;;;14.23;12.73;;;;;;;19.25;63.97;102846.84;5061355;28;20061;-85
2022/11/11 07:51:18;;;;;;;14.57;12.48;;;;;;;19.24;63.78;102859.41;5061113;28;20056;-85
2022/11/11 07:54:04;;;;;;;15.32;11.65;;;;;;;19.24;63.66;102855.84;5058143;28;20409;-85
2022/11/11 07:56:50;;;;;;;13.10;11.50;;;;;;;19.25;63.97;102862.97;5060396;28;20409;-85
2022/11/11 07:59:36;;;;;;;13.48;12.07;;;;;;;19.24;63.82;102864.78;5059362;28;20404;-85
2022/11/11 08:02:22;;;;;;;17.30;12.20;;;;;;;19.24;63.89;102866.56;5059924;28;20064;-85
2022/11/11 08:05:09;;;;;;;16.40;14.02;;;;;;;19.24;63.86;102867.47;5059738;28;20045;-82
2022/11/11 08:07:55;;;;;;;16.15;13.52;;;;;;;19.25;63.78;102873.72;5033396;28;20489;-80
2022/11/11 08:10:40;;;;;;;14.55;12.23;;;;;;;19.26;63.99;102864.69;5039996;28;20053;-81
2022/11/11 08:13:42;;;;;;;12.27;10.98;;;;;;;19.25;64.27;102865.66;5035975;28;20489;-79
2022/11/11 08:16:28;;;;;;;14.80;12.35;;;;;;;19.25;64.31;102866.53;5040585;28;20049;-83
2022/11/11 08:19:13;;;;;;;13.57;11.55;;;;;;;19.25;64.19;102858.47;5040638;28;20053;-84
2022/11/11 08:21:59;;;;;;;13.90;12.50;;;;;;;19.26;64.09;102870.06;5039509;28;20053;-83
2022/11/11 08:24:45;;;;;;;19.40;13.95;;;;;;;19.25;64.21;102855.78;5040223;28;20049;-83
2022/11/11 08:27:48;;;;;;;16.13;13.93;;;;;;;19.26;64.16;102864.69;5042568;28;20057;-83
2022/11/11 08:30:35;;;;;;;17.38;15.30;;;;;;;19.26;64.23;102872.75;5044508;28;20049;-83
2022/11/11 08:33:20;;;;;;;19.20;15.95;;;;;;;19.26;64.17;102881.66;5044060;28;20049;-82
2022/11/11 08:36:22;;;;;;;21.40;17.88;;;;;;;19.25;64.03;102890.69;5043831;28;20516;-82
2022/11/11 08:39:08;;;;;;;20.20;17.33;;;;;;;19.25;64.02;102890.69;5044248;28;20053;-81
2022/11/11 08:41:54;;;;;;;21.45;17.83;;;;;;;19.25;63.87;102895.19;5044205;28;20053;-82
2022/11/11 08:44:40;;;;;;;20.30;17.55;;;;;;;19.26;63.89;102896.91;5044600;28;20045;-83
2022/11/11 08:47:25;;;;;;;22.17;19.83;;;;;;;19.26;63.81;102889.72;5043436;28;20045;-84
2022/11/11 08:50:12;;;;;;;21.67;18.23;;;;;;;19.26;63.74;102889.72;5037958;28;20053;-83
2022/11/11 08:52:57;;;;;;;23.73;19.17;;;;;;;19.27;63.65;102890.59;5044295;28;20053;-85
2022/11/11 08:55:43;;;;;;;26.13;19.67;;;;;;;19.26;63.65;102888.88;5044629;28;20049;-85
2022/11/11 08:58:30;;;;;;;27.90;21.42;;;;;;;19.27;63.84;102904.03;5043427;28;20053;-88
2022/11/11 09:01:15;;;;;;;22.40;19.67;;;;;;;19.26;63.58;102899.59;5043370;28;20057;-88
2022/11/11 09:04:01;;;;;;;25.27;20.80;;;;;;;19.27;63.77;102899.50;5036922;28;20057;-88
2022/11/11 09:07:09;;;;;;;28.58;21.90;;;;;;;19.27;63.53;102894.13;5043268;28;20049;-86
2022/11/11 09:09:55;;;;;;;26.10;20.65;;;;;;;19.26;63.58;102895.09;5043090;28;20049;-90
2022/11/11 09:12:41;;;;;;;35.45;29.65;;;;;;;19.26;63.53;102908.53;5039834;28;20093;-86
2022/11/11 09:15:27;;;;;;;43.50;36.80;;;;;;;19.22;63.34;102906.94;5041444;28;20045;-89
2022/11/11 09:18:13;;;;;;;49.67;38.80;;;;;;;19.18;63.41;102913.44;5035628;28;20057;-86
2022/11/11 09:20:59;;;;;;;47.63;38.38;;;;;;;19.14;63.58;102908.31;5035680;28;20049;-86
2022/11/11 09:23:45;;;;;;;46.47;37.00;;;;;;;19.12;63.67;102913.78;5042267;28;20046;-86
2022/11/11 09:26:31;;;;;;;46.17;36.15;;;;;;;19.10;63.74;102925.53;5041988;28;20409;-87
2022/11/11 09:29:18;;;;;;;46.85;36.13;;;;;;;19.10;63.64;102928.22;5041723;28;20049;-86
2022/11/11 09:32:04;;;;;;;42.08;35.17;;;;;;;19.08;63.82;102925.63;5049632;28;20056;-86
2022/11/11 09:34:50;;;;;;;44.80;38.50;;;;;;;19.07;63.33;102929.22;5055781;28;20045;-87
2022/11/11 09:37:35;;;;;;;51.83;41.40;;;;;;;19.03;63.65;102933.00;5062978;28;20048;-88
2022/11/11 09:40:24;;;;;;;52.65;39.63;;;;;;;19.01;63.79;102941.16;5062025;28;20053;-86
2022/11/11 09:43:25;;;;;;;48.40;38.95;;;;;;;19.01;64.03;102940.28;5062206;28;20049;-85
2022/11/11 09:46:46;;;;;;;52.55;41.65;;;;;;;18.99;63.56;102934.13;5061424;28;20511;-85
2022/11/11 09:49:55;;;;;;;47.80;38.70;;;;;;;18.98;63.65;102927.03;5061018;28;20049;-87
2022/11/11 09:52:41;;;;;;;51.67;38.30;;;;;;;18.98;64.04;102930.56;5062407;28;20045;-86
2022/11/11 09:55:32;;;;;;;47.50;41.42;;;;;;;18.96;64.02;102931.63;5056310;28;20048;-86
2022/11/11 09:58:21;;;;;;;51.15;40.63;;;;;;;18.96;63.94;102940.53;5061410;28;20417;-85
2022/11/11 10:01:15;;;;;;;48.55;38.22;;;;;;;18.95;64.01;102930.72;5062810;28;20385;-86
2022/11/11 10:04:19;;;;;;;51.80;40.42;;;;;;;18.97;63.92;102936.03;5061736;28;20053;-86
2022/11/11 10:07:13;;;;;;;50.28;40.72;;;;;;;18.96;63.92;102928.94;5041551;28;20120;-86
2022/11/11 10:10:05;;;;;;;;;;;;;;;18.97;63.81;102923.47;5041620;28;20489;-89
2022/11/11 10:12:57;;;;;;;44.15;35.53;;;;;;;18.99;63.85;102912.63;5036822;28;19920;-88
2022/11/11 10:16:16;;;;;;;38.55;32.80;;;;;;;19.02;63.59;102920.53;5036872;28;20041;-91
2022/11/11 10:19:04;;;;;;;39.28;31.35;;;;;;;19.04;63.76;102921.34;5017140;28;20057;-92
2022/11/11 10:21:53;;;;;;;34.03;28.08;;;;;;;19.07;63.65;102920.31;5007861;28;20058;-87
2022/11/11 10:25:11;;;;;;;32.78;25.60;;;;;;;19.08;63.54;102920.25;5010233;28;20042;-90
2022/11/11 10:28:00;;;;;;;31.25;25.50;;;;;;;19.10;63.50;102918.34;5007816;28;20445;-89
2022/11/11 10:30:47;;;;;;;31.00;25.17;;;;;;;19.12;63.60;102915.56;5015170;28;20050;-90
2022/11/11 10:33:49;;;;;;;30.67;26.00;;;;;;;19.13;63.31;102917.31;5020489;28;20053;-90
2022/11/11 10:36:41;;;;;;;30.38;24.13;;;;;;;19.13;63.07;102918.19;5002801;28;20054;-90
2022/11/11 10:40:05;;;;;;;28.90;24.15;;;;;;;19.15;63.41;102904.66;5020416;28;20041;-89
2022/11/11 10:42:51;;;;;;;29.63;24.52;;;;;;;19.16;63.36;102903.72;5016947;28;20054;-87
2022/11/11 10:45:53;;;;;;;37.53;28.65;;;;;;;19.15;63.01;102900.16;5020572;28;20049;-90
2022/11/11 10:49:09;;;;;;;52.60;42.65;;;;;;;19.15;62.92;102889.41;5006091;28;20054;-89
2022/11/11 10:52:54;;;;;;;40.92;32.40;;;;;;;19.14;63.02;102889.50;5020788;28;20206;-91
2022/11/11 10:55:48;;;;;;;32.88;25.92;;;;;;;19.14;63.05;102882.31;5007678;28;20049;-92
2022/11/11 10:58:45;;;;;;;30.90;24.27;;;;;;;19.15;63.12;102883.19;5054708;28;20385;-93
2022/11/11 11:01:40;;;;;;;30.08;23.80;;;;;;;19.17;63.15;102884.84;5062424;28;20397;-90
2022/11/11 11:04:39;;;;;;;29.00;23.05;;;;;;;19.16;62.86;102869.69;5061030;28;20045;-90
2022/11/11 11:07:33;;;;;;;29.70;23.92;;;;;;;19.18;63.21;102862.41;5055237;28;20045;-93
2022/11/11 11:10:33;;;;;;;29.55;23.98;;;;;;;19.19;63.02;102863.28;5062352;28;20392;-92
2022/11/11 11:13:28;;;;;;;28.67;23.30;;;;;;;19.17;63.24;102855.31;5053973;28;20037;-90
2022/11/11 11:16:24;;;;;;;29.48;24.02;;;;;;;19.19;62.96;102849.84;5060661;28;20057;-92
2022/11/11 11:19:24;;;;;;;29.40;24.42;;;;;;;19.20;62.99;102854.25;5053865;28;20489;-90
2022/11/11 11:22:10;;;;;;;26.52;21.35;;;;;;;19.20;63.21;102847.09;5053108;28;20412;-91
2022/11/11 11:25:11;;;;;;;27.38;22.40;;;;;;;19.20;63.05;102844.41;5054610;28;20052;-91
2022/11/11 11:28:05;;;;;;;24.83;21.33;;;;;;;19.20;62.81;102839.06;5060618;28;20045;-92
2022/11/11 11:31:03;;;;;;;25.65;21.95;;;;;;;19.21;62.97;102837.22;5060530;28;20053;-93
2022/11/11 11:33:54;;;;;;;26.67;22.00;;;;;;;19.19;62.93;102837.28;5060632;28;20477;-91
2022/11/11 11:36:41;;;;;;;30.65;23.85;;;;;;;19.22;63.28;102838.97;5060917;28;20057;-90
2022/11/11 11:39:38;;;;;;;25.85;22.15;;;;;;;19.23;63.01;102838.88;5054653;28;20493;-87
2022/11/11 11:42:35;;;;;;;28.40;23.90;;;;;;;19.23;63.34;102835.31;5053700;28;20508;-87
2022/11/11 11:45:23;;;;;;;34.65;25.83;;;;;;;19.24;63.71;102834.34;5059218;28;20420;-87
2022/11/11 11:48:39;;;;;;;31.77;24.45;;;;;;;19.24;63.49;102832.56;5052892;28;20488;-87
2022/11/11 11:51:31;;;;;;;32.03;22.10;;;;;;;19.25;63.54;102836.97;5053071;28;20061;-88
2022/11/11 11:54:42;;;;;;;29.20;23.38;;;;;;;19.26;63.69;102832.47;5055837;28;20045;-86
2022/11/11 11:57:42;;;;;;;32.72;23.95;;;;;;;19.25;63.98;102831.59;5059721;28;20045;-87
2022/11/11 12:00:42;;;;;;;32.90;24.08;;;;;;;19.26;63.92;102833.34;5059324;28;20053;-86
2022/11/11 12:04:06;;;;;;;28.75;22.08;;;;;;;19.26;63.77;102830.66;5063012;28;20049;-86
2022/11/11 12:07:04;;;;;;;;;;;;;;;19.26;63.92;102827.97;5057796;28;20468;-87
2022/11/11 12:10:04;;;;;;;28.50;21.63;;;;;;;19.26;64.13;102813.66;5063650;28;19921;-87
2022/11/11 12:13:16;;;;;;;24.20;20.13;;;;;;;19.26;63.77;102811.00;5059954;28;20053;-87
2022/11/11 12:16:02;;;;;;;30.50;21.75;;;;;;;19.26;63.93;102816.34;5056743;28;20049;-87
2022/11/11 12:19:07;;;;;;;29.92;21.40;;;;;;;19.26;63.80;102809.16;5062374;28;20053;-88
2022/11/11 12:22:27;;;;;;;25.60;20.40;;;;;;;19.27;64.02;102810.03;5064460;28;20041;-87
2022/11/11 12:25:16;;;;;;;29.98;21.25;;;;;;;19.27;63.86;102812.72;5055753;28;20476;-87
2022/11/11 12:28:04;;;;;;;26.02;19.30;;;;;;;19.26;63.77;102795.75;5062293;28;20408;-87
2022/11/11 12:31:17;;;;;;;26.10;19.70;;;;;;;19.26;63.94;102790.38;5063359;28;20045;-87
2022/11/11 12:34:22;;;;;;;22.83;18.00;;;;;;;19.28;63.80;102798.31;5043129;28;20049;-87
2022/11/11 12:37:10;;;;;;;23.92;19.35;;;;;;;19.27;63.49;102800.16;5055718;28;20053;-86
2022/11/11 12:39:57;;;;;;;22.85;17.70;;;;;;;19.27;63.54;102794.78;5062407;28;20045;-86
2022/11/11 12:43:13;;;;;;;22.48;18.00;;;;;;;19.28;63.52;102795.66;5063293;28;20052;-87
2022/11/11 12:46:26;;;;;;;23.08;17.90;;;;;;;19.30;63.70;102800.94;5056345;28;20041;-85
2022/11/11 12:49:42;;;;;;;23.50;19.33;;;;;;;19.28;63.74;102798.31;5063047;28;20053;-86
2022/11/11 12:52:52;;;;;;;22.88;18.42;;;;;;;19.30;63.76;102800.94;5062596;28;20523;-85
2022/11/11 12:56:22;;;;;;;22.65;17.75;;;;;;;19.29;63.71;102799.22;5057555;28;20049;-85
2022/11/11 12:59:51;;;;;;;23.65;16.90;;;;;;;19.30;63.93;102798.25;5061724;28;20041;-79
2022/11/11 13:02:46;;;;;;;17.15;15.15;;;;;;;19.29;63.70;102797.41;5050848;28;20053;-78
2022/11/11 13:05:31;;;;;;;21.60;16.60;;;;;;;19.30;64.20;102787.53;5062805;28;20497;-86
2022/11/11 13:08:36;;;;;;;18.63;15.63;;;;;;;19.30;63.90;102788.38;5062695;28;20056;-84
2022/11/11 13:12:13;;;;;;;20.45;15.98;;;;;;;19.31;63.92;102789.25;5063079;28;20049;-84
2022/11/11 13:15:14;;;;;;;17.92;14.60;;;;;;;19.30;63.82;102783.00;5035727;28;20049;-83
2022/11/11 13:18:01;;;;;;;18.85;14.35;;;;;;;19.31;63.60;102782.06;5023636;28;20061;-84
2022/11/11 13:20:53;;;;;;;15.98;13.93;;;;;;;19.31;63.81;102797.31;5040911;28;20061;-85
2022/11/11 13:23:39;;;;;;;17.42;13.10;;;;;;;19.31;63.58;102795.47;5025562;28;20053;-85
2022/11/11 13:26:32;;;;;;;16.67;14.07;;;;;;;19.30;63.80;102791.06;5045255;28;20045;-85
2022/11/11 13:29:43;;;;;;;17.92;13.52;;;;;;;19.31;63.90;102794.63;5046393;28;20053;-84
2022/11/11 13:32:39;;;;;;;16.70;13.25;;;;;;;19.30;63.57;102799.13;5060361;28;20532;-83
2022/11/11 13:35:56;;;;;;;17.42;14.43;;;;;;;19.31;64.01;102797.31;5060605;28;20396;-84
2022/11/11 13:38:49;;;;;;;18.42;13.48;;;;;;;19.32;63.83;102801.72;5060507;28;20412;-83
2022/11/11 13:41:39;;;;;;;17.63;12.70;;;;;;;19.31;63.96;102800.84;5059973;28;20045;-84
2022/11/11 13:44:33;;;;;;;15.40;12.20;;;;;;;19.31;63.83;102797.31;5055285;28;20556;-83
2022/11/11 13:47:24;;;;;;;16.88;12.05;;;;;;;19.30;63.64;102796.44;5060191;28;20045;-84
2022/11/11 13:50:29;;;;;;;15.60;12.90;;;;;;;19.31;63.66;102800.84;5046488;28;20053;-84
2022/11/11 13:53:41;;;;;;;14.20;12.07;;;;;;;19.32;63.81;102793.66;5062034;28;20048;-84
2022/11/11 13:56:29;;;;;;;14.95;11.63;;;;;;;19.32;63.67;102793.66;5062569;28;20049;-84
2022/11/11 13:59:28;;;;;;;15.20;12.13;;;;;;;19.31;63.58;102792.78;5063732;28;20052;-84
2022/11/11 14:02:17;;;;;;;14.90;11.35;;;;;;;19.32;63.58;102788.28;5063990;28;20045;-84
2022/11/11 14:05:04;;;;;;;14.10;11.77;;;;;;;19.32;63.60;102793.66;5064861;28;20049;-85
2022/11/11 14:07:55;;;;;;;14.80;11.05;;;;;;;19.31;63.57;102798.16;5062877;28;20045;-85
2022/11/11 14:10:51;;;;;;;12.73;10.80;;;;;;;19.31;63.53;102794.63;5063445;28;20048;-85
2022/11/11 14:13:44;;;;;;;13.25;10.35;;;;;;;19.31;63.38;102794.63;5055536;28;20049;-84
2022/11/11 14:16:36;;;;;;;13.63;11.43;;;;;;;19.30;63.49;102801.81;5063100;28;20045;-84
2022/11/11 14:19:21;;;;;;;12.60;9.50;;;;;;;19.30;63.50;102801.81;5062079;28;20053;-84
2022/11/11 14:22:30;;;;;;;12.35;10.13;;;;;;;19.31;63.56;102805.38;5062207;28;20064;-84